Terminal Aerodrome Forecast
Issued by NWS Twin Cities, MN

Home | Current Version | Previous Version | Text Only | Print | Product List | Glossary On
Versions: 1 2 3 4 5 6 7 8 9 10 11 12 13 14 15 16
053
FTUS43 KMPX 081131
TAFSTC
TAF
KSTC 081131Z 0812/0912 30013KT P6SM SCT020 BKN090
     FM081400 31015G22KT P6SM OVC020
     FM090000 32011KT P6SM BKN022=

USA.gov is the U.S. government's official web portal to all federal, state and local government web resources and services.